createdAt,value
2022-10-07T00:04:02.364Z,12.50
2022-10-07T00:08:57.069Z,12.60
2022-10-07T00:13:54.011Z,12.60
2022-10-07T00:18:48.438Z,12.60
2022-10-07T00:23:43.198Z,12.50
2022-10-07T00:28:38.769Z,12.50
2022-10-07T00:33:34.570Z,12.50
2022-10-07T00:38:28.336Z,12.60
2022-10-07T00:43:29.609Z,12.60
2022-10-07T00:48:31.053Z,12.60
2022-10-07T00:53:27.028Z,12.70
2022-10-07T00:58:20.370Z,12.80
2022-10-07T01:03:15.130Z,12.80
2022-10-07T01:08:10.656Z,12.80
2022-10-07T01:13:15.163Z,12.80
2022-10-07T01:18:18.762Z,12.80
2022-10-07T01:23:53.041Z,12.80
2022-10-07T01:28:53.734Z,12.70
2022-10-07T01:33:50.360Z,12.70
2022-10-07T01:38:52.257Z,12.70
2022-10-07T01:43:48.398Z,12.60
2022-10-07T01:48:41.587Z,12.60
2022-10-07T01:53:51.829Z,12.70
2022-10-07T01:59:18.813Z,12.80
2022-10-07T02:04:38.812Z,12.80
2022-10-07T02:09:38.578Z,12.70
2022-10-07T02:14:41.336Z,12.80
2022-10-07T02:19:40.941Z,12.70
2022-10-07T02:24:38.886Z,12.80
2022-10-07T02:29:38.472Z,12.80
2022-10-07T02:34:34.990Z,12.80
2022-10-07T02:39:29.313Z,12.80
2022-10-07T02:44:36.131Z,12.80
2022-10-07T02:49:32.230Z,12.80
2022-10-07T02:54:34.716Z,12.70
2022-10-07T02:59:30.147Z,12.60
2022-10-07T03:04:25.161Z,12.70
2022-10-07T03:09:18.424Z,12.70
2022-10-07T03:14:11.802Z,12.70
2022-10-07T03:19:05.193Z,12.70
2022-10-07T03:24:04.698Z,12.60
2022-10-07T03:28:58.026Z,12.70
2022-10-07T03:33:51.237Z,12.70
2022-10-07T03:38:44.591Z,12.80
2022-10-07T03:43:39.213Z,12.80
2022-10-07T03:48:45.539Z,12.80
2022-10-07T03:53:40.320Z,12.70
2022-10-07T03:58:33.923Z,12.80
2022-10-07T04:03:28.528Z,12.70
2022-10-07T04:08:21.707Z,12.70
2022-10-07T04:13:14.989Z,12.60
2022-10-07T04:18:08.279Z,12.70
2022-10-07T04:23:03.222Z,12.60
2022-10-07T04:27:57.865Z,12.60
2022-10-07T04:32:51.926Z,12.60
2022-10-07T04:37:45.692Z,12.60
2022-10-07T04:42:57.954Z,12.60
2022-10-07T04:47:51.504Z,12.60
2022-10-07T04:52:45.153Z,12.60
2022-10-07T04:57:38.438Z,12.60
2022-10-07T05:02:33.127Z,12.60
2022-10-07T05:07:26.652Z,12.60
2022-10-07T05:12:19.954Z,12.60
2022-10-07T05:17:14.138Z,12.70
2022-10-07T05:22:08.957Z,12.60
2022-10-07T05:27:02.324Z,12.70
2022-10-07T05:31:55.704Z,12.60
2022-10-07T05:36:48.998Z,12.60
2022-10-07T05:41:45.522Z,12.70
2022-10-07T05:46:40.210Z,12.70
2022-10-07T05:51:33.482Z,12.70
2022-10-07T05:56:26.818Z,12.70
2022-10-07T06:01:27.110Z,12.70
2022-10-07T06:06:21.306Z,12.80
2022-10-07T06:11:34.982Z,12.70
2022-10-07T06:16:30.192Z,12.70
2022-10-07T06:21:28.211Z,12.80
2022-10-07T06:26:22.847Z,12.80
2022-10-07T06:31:22.321Z,12.70
2022-10-07T06:36:17.171Z,12.80
2022-10-07T06:41:11.043Z,12.80
2022-10-07T06:46:06.731Z,12.80
2022-10-07T06:51:03.275Z,12.80
2022-10-07T06:55:59.078Z,12.90
2022-10-07T07:00:52.892Z,12.90
2022-10-07T07:05:49.754Z,13.00
2022-10-07T07:10:46.436Z,13.00
2022-10-07T07:15:42.054Z,13.10
2022-10-07T07:20:37.318Z,13.00
2022-10-07T07:25:32.035Z,13.00
2022-10-07T07:30:25.266Z,13.00
2022-10-07T07:35:19.996Z,13.00
2022-10-07T07:40:13.431Z,13.00
2022-10-07T08:01:26.669Z,13.10
2022-10-07T09:00:12.542Z,13.70
2022-10-07T09:11:27.663Z,13.80
2022-10-07T09:43:57.336Z,13.80
2022-10-07T09:54:57.876Z,14.00
2022-10-07T09:59:51.237Z,14.00
2022-10-07T10:04:52.645Z,14.00
2022-10-07T10:09:51.760Z,14.10
2022-10-07T10:14:49.883Z,14.00
2022-10-07T10:19:43.140Z,14.20
2022-10-07T10:25:06.855Z,14.30
2022-10-07T10:30:06.633Z,14.40
2022-10-07T10:35:14.914Z,14.70
2022-10-07T10:40:27.165Z,14.80
2022-10-07T10:45:36.209Z,15.00
2022-10-07T10:50:41.677Z,15.00
2022-10-07T10:56:17.311Z,15.00
2022-10-07T11:01:30.589Z,15.00
2022-10-07T11:06:26.681Z,15.10
2022-10-07T11:11:24.299Z,15.10
2022-10-07T11:16:24.161Z,15.10
2022-10-07T11:21:25.964Z,15.00
2022-10-07T11:26:34.473Z,15.00
2022-10-07T11:31:36.798Z,14.90
2022-10-07T11:36:52.636Z,15.00
2022-10-07T11:41:59.984Z,15.10
2022-10-07T11:46:58.006Z,15.20
2022-10-07T11:52:00.477Z,15.20
2022-10-07T11:56:59.468Z,15.30
2022-10-07T12:01:53.630Z,15.30
2022-10-07T12:07:50.528Z,15.20
2022-10-07T12:12:55.255Z,15.20
2022-10-07T12:17:56.237Z,15.30
2022-10-07T12:23:49.950Z,15.30
2022-10-07T12:33:58.777Z,15.30
2022-10-07T12:39:39.347Z,15.30
2022-10-07T12:44:51.307Z,15.30
2022-10-07T12:49:50.677Z,15.40
2022-10-07T12:54:53.750Z,15.50
2022-10-07T13:00:03.703Z,15.50
2022-10-07T13:05:43.686Z,15.60
2022-10-07T13:11:46.895Z,15.60
2022-10-07T13:16:50.697Z,15.60
2022-10-07T13:21:56.683Z,15.50
2022-10-07T13:26:50.260Z,15.50
2022-10-07T13:31:43.723Z,15.40
2022-10-07T13:36:44.718Z,15.30
2022-10-07T13:41:42.525Z,15.30
2022-10-07T13:46:42.193Z,15.30
2022-10-07T13:51:56.162Z,15.30
2022-10-07T13:56:50.564Z,15.20
2022-10-07T14:01:44.240Z,15.30
2022-10-07T14:06:48.337Z,15.30
2022-10-07T14:11:43.580Z,15.40
2022-10-07T14:16:38.149Z,15.40
2022-10-07T14:21:34.935Z,15.50
2022-10-07T14:26:46.075Z,15.50
2022-10-07T14:31:56.691Z,15.50
2022-10-07T14:37:08.088Z,15.50
2022-10-07T14:42:03.548Z,15.50
2022-10-07T14:47:05.642Z,15.60
2022-10-07T14:51:59.618Z,15.50
2022-10-07T14:56:52.896Z,15.40
2022-10-07T15:01:47.976Z,15.40
2022-10-07T15:06:41.358Z,15.40
2022-10-07T15:11:35.981Z,15.40
2022-10-07T15:16:29.886Z,15.40
2022-10-07T15:21:25.943Z,15.30
2022-10-07T15:26:21.325Z,15.30
2022-10-07T15:31:14.623Z,15.30
2022-10-07T15:36:08.790Z,15.30
2022-10-07T15:41:03.914Z,15.20
2022-10-07T15:45:58.918Z,15.20
2022-10-07T15:50:55.022Z,15.10
2022-10-07T15:55:52.966Z,15.10
2022-10-07T16:00:58.710Z,15.10
2022-10-07T16:05:58.219Z,15.10
2022-10-07T16:10:51.431Z,15.00
2022-10-07T16:15:45.612Z,14.90
2022-10-07T16:20:41.021Z,14.90
2022-10-07T16:25:36.908Z,14.90
2022-10-07T16:30:43.160Z,14.70
2022-10-07T16:35:36.407Z,14.70
2022-10-07T16:40:34.900Z,14.50
2022-10-07T16:45:28.341Z,14.40
2022-10-07T16:50:21.746Z,14.20
2022-10-07T16:55:15.351Z,14.10
2022-10-07T17:00:12.367Z,14.00
2022-10-07T17:05:06.871Z,14.00
2022-10-07T17:10:00.155Z,14.00
2022-10-07T17:14:53.414Z,13.90
2022-10-07T17:19:48.099Z,13.80
2022-10-07T17:24:41.734Z,13.80
2022-10-07T17:29:36.123Z,13.70
2022-10-07T17:34:29.566Z,13.60
2022-10-07T17:39:24.304Z,13.60
2022-10-07T17:44:17.765Z,13.50
2022-10-07T17:49:14.254Z,13.40
2022-10-07T17:54:08.197Z,13.30
2022-10-07T17:59:03.357Z,13.40
2022-10-07T18:03:59.246Z,13.30
2022-10-07T18:08:53.115Z,13.30
2022-10-07T18:14:04.099Z,13.20
2022-10-07T18:18:59.169Z,13.20
2022-10-07T18:23:54.455Z,13.10
2022-10-07T18:28:48.212Z,13.10
2022-10-07T18:33:41.704Z,13.00
2022-10-07T18:38:38.989Z,13.00
2022-10-07T18:43:33.204Z,13.00
2022-10-07T18:48:26.462Z,13.00
2022-10-07T18:53:19.809Z,12.90
2022-10-07T18:58:14.512Z,13.00
2022-10-07T19:03:07.858Z,12.90
2022-10-07T19:08:01.135Z,12.80
2022-10-07T19:13:12.197Z,12.80
2022-10-07T19:18:07.499Z,12.70
2022-10-07T19:23:00.766Z,12.70
2022-10-07T19:27:54.126Z,12.70
2022-10-07T19:32:47.349Z,12.70
2022-10-07T19:37:42.435Z,12.70
2022-10-07T19:42:37.788Z,12.50
2022-10-07T19:47:34.678Z,12.40
2022-10-07T19:52:28.392Z,12.40
2022-10-07T19:57:23.191Z,12.50
2022-10-07T20:02:16.487Z,12.40
2022-10-07T20:07:10.408Z,12.40
2022-10-07T20:12:04.656Z,12.30
2022-10-07T20:16:59.378Z,12.20
2022-10-07T20:21:52.675Z,12.20
2022-10-07T20:26:46.441Z,12.20
2022-10-07T20:31:42.242Z,12.10
2022-10-07T20:36:41.361Z,12.10
2022-10-07T20:41:52.212Z,12.10
2022-10-07T20:46:45.605Z,12.00
2022-10-07T20:51:40.682Z,11.80
2022-10-07T20:56:34.664Z,11.90
2022-10-07T21:01:28.505Z,11.90
2022-10-07T21:06:21.838Z,11.90
2022-10-07T21:11:16.480Z,12.00
2022-10-07T21:16:09.880Z,11.90
2022-10-07T21:21:03.196Z,11.80
2022-10-07T21:26:02.511Z,11.80
2022-10-07T21:30:59.958Z,11.90
2022-10-07T21:35:53.314Z,11.70
2022-10-07T21:40:46.527Z,11.60
2022-10-07T21:45:41.374Z,11.70
2022-10-07T21:50:35.964Z,11.70
2022-10-07T21:55:29.467Z,11.80
2022-10-07T22:00:22.728Z,11.70
2022-10-07T22:05:16.176Z,11.70
2022-10-07T22:10:11.578Z,11.60
2022-10-07T22:15:05.458Z,11.50
2022-10-07T22:19:58.823Z,11.60
2022-10-07T22:24:52.126Z,11.70
2022-10-07T22:29:48.012Z,11.70
2022-10-07T22:34:58.946Z,11.70
2022-10-07T22:39:52.234Z,11.60
2022-10-07T22:44:46.847Z,11.70
2022-10-07T22:49:41.686Z,11.50
2022-10-07T22:54:34.991Z,11.50
2022-10-07T22:59:28.271Z,11.50
2022-10-07T23:04:22.951Z,11.50
2022-10-07T23:09:16.194Z,11.50
2022-10-07T23:14:09.701Z,11.50
2022-10-07T23:19:02.904Z,11.50
2022-10-07T23:24:05.977Z,11.40
2022-10-07T23:29:02.965Z,11.40
2022-10-07T23:33:58.150Z,11.50
2022-10-07T23:38:52.829Z,11.60
2022-10-07T23:43:49.901Z,11.60
2022-10-07T23:48:43.515Z,11.60
2022-10-07T23:53:37.007Z,11.50
2022-10-07T23:58:32.457Z,11.50
